This is the latest recevied weather packets stored in our database for station/object VR2OT-10. If no packets are shown the sender has not sent any weather packets the latest 10 day(s).
| Time | Temp. | Humidity | Pressure | Rain* | Wind** | Luminosity | Snow |
|---|---|---|---|---|---|---|---|
| 1777449739 | 27.22° C | 76% | 1009.1 hPa | - | 2.68 m/s, 270° | - | - |
| 1777448838 | 27.22° C | 76% | 1008.8 hPa | - | 3.13 m/s, 270° | - | - |
| 1777447939 | 26.67° C | 75% | 1008.7 hPa | - | 2.24 m/s, 315° | - | - |
| 1777447037 | 27.78° C | 75% | 1008.7 hPa | - | 3.13 m/s, 315° | - | - |
| 1777446137 | 27.22° C | 75% | 1009 hPa | - | 1.79 m/s, 270° | - | - |
| 1777445237 | 26.11° C | 75% | 1009.3 hPa | - | 1.34 m/s, 270° | - | - |
| 1777444338 | 26.11° C | 75% | 1009.6 hPa | - | 1.79 m/s, 270° | - | - |
| 1777442539 | 26.11° C | 74% | 1009.8 hPa | - | 3.13 m/s, 270° | - | - |
| 1777441638 | 26.11° C | 72% | 1009.8 hPa | - | 2.24 m/s, 0° | - | - |
| 1777440738 | 26.11° C | 71% | 1010.1 hPa | - | 4.92 m/s, 270° | - | - |
| 1777439838 | 25.56° C | 72% | 1010.2 hPa | - | 3.13 m/s, 270° | - | - |
| 1777438939 | 23.89° C | 77% | 1009.8 hPa | - | 1.79 m/s, 225° | - | - |
| 1777438038 | 23.33° C | 81% | 1010.1 hPa | - | 0 m/s | - | - |
| 1777437138 | 22.78° C | 92% | 1010.2 hPa | - | 1.79 m/s, 90° | - | - |
| 1777434437 | 25° C | 89% | 1011.3 hPa | - | 1.79 m/s, 225° | - | - |
| 1777433542 | 25.56° C | 90% | 1011.1 hPa | - | 1.79 m/s, 270° | - | - |
| 1777432641 | 26.11° C | 86% | 1011.2 hPa | - | 2.24 m/s, 270° | - | - |
| 1777431739 | 26.67° C | 79% | 1011.2 hPa | - | 1.79 m/s, 225° | - | - |
| 1777430837 | 26.67° C | 80% | 1011.3 hPa | - | 1.79 m/s, 225° | - | - |
| 1777429937 | 26.67° C | 80% | 1011.3 hPa | - | 0.89 m/s, ° | - | - |
| 1777429038 | 26.67° C | 79% | 1011.2 hPa | - | 0.45 m/s, 135° | - | - |
| 1777428139 | 26.11° C | 83% | 1011.3 hPa | - | 1.34 m/s, 135° | - | - |
| 1777427238 | 26.67° C | 83% | 1011.2 hPa | - | 0 m/s | - | - |
| 1777426339 | 26.11° C | 85% | 1011 hPa | - | 0.89 m/s, 270° | - | - |
| 1777424538 | 26.11° C | 89% | 1010.8 hPa | - | 0 m/s | - | - |
* Rain since midnight (hover to see other rain measurements)
** Current wind speed in m/s (hover to see current wind gust speed)